createdAt,value
2023-03-21T00:00:01.802Z,6.89
2023-03-21T00:05:15.087Z,6.83
2023-03-21T00:10:29.759Z,6.92
2023-03-21T00:16:03.783Z,6.86
2023-03-21T00:26:34.224Z,6.83
2023-03-21T00:31:41.255Z,6.83
2023-03-21T00:36:44.247Z,6.84
2023-03-21T00:41:46.309Z,6.83
2023-03-21T00:47:04.250Z,6.85
2023-03-21T00:52:27.369Z,6.87
2023-03-21T00:57:38.597Z,6.85
2023-03-21T01:03:08.532Z,6.82
2023-03-21T01:08:25.398Z,6.79
2023-03-21T01:13:30.613Z,6.82
2023-03-21T01:18:35.714Z,6.76
2023-03-21T01:23:42.819Z,6.72
2023-03-21T01:28:45.935Z,6.69
2023-03-21T01:33:48.092Z,6.75
2023-03-21T01:38:50.711Z,6.77
2023-03-21T01:43:53.974Z,6.64
2023-03-21T01:49:05.104Z,6.56
2023-03-21T01:54:10.456Z,6.49
2023-03-21T01:59:17.685Z,6.40
2023-03-21T02:04:22.619Z,6.38
2023-03-21T02:09:28.527Z,6.28
2023-03-21T02:14:38.033Z,6.24
2023-03-21T02:20:09.252Z,6.27
2023-03-21T02:25:43.593Z,6.39
2023-03-21T02:30:52.486Z,6.43
2023-03-21T02:36:28.759Z,6.38
2023-03-21T02:41:40.152Z,6.45
2023-03-21T02:46:49.069Z,6.48
2023-03-21T02:52:05.453Z,6.49
2023-03-21T02:57:19.077Z,6.50
2023-03-21T03:02:27.466Z,6.51
2023-03-21T03:07:44.594Z,6.52
2023-03-21T03:12:57.865Z,6.54
2023-03-21T03:18:08.562Z,6.57
2023-03-21T03:23:21.353Z,6.66
2023-03-21T03:28:30.669Z,6.60
2023-03-21T03:33:38.257Z,6.58
2023-03-21T03:38:42.364Z,6.57
2023-03-21T03:43:49.559Z,6.56
2023-03-21T03:49:16.814Z,6.60
2023-03-21T03:54:28.800Z,6.61
2023-03-21T03:59:35.561Z,6.53
2023-03-21T04:04:37.526Z,6.45
2023-03-21T04:09:44.829Z,6.40
2023-03-21T04:14:48.237Z,6.32
2023-03-21T04:19:57.707Z,6.32
2023-03-21T04:25:07.663Z,6.34
2023-03-21T04:30:12.362Z,6.33
2023-03-21T04:35:15.578Z,6.33
2023-03-21T04:40:19.159Z,6.32
2023-03-21T04:45:22.504Z,6.30
2023-03-21T04:50:24.504Z,6.32
2023-03-21T04:55:28.304Z,6.28
2023-03-21T05:00:39.283Z,6.28
2023-03-21T05:05:41.585Z,6.32
2023-03-21T05:10:43.888Z,6.30
2023-03-21T05:15:46.015Z,6.29
2023-03-21T05:20:54.389Z,6.31
2023-03-21T05:25:56.324Z,6.30
2023-03-21T05:31:05.369Z,6.31
2023-03-21T05:36:09.979Z,6.27
2023-03-21T05:41:15.078Z,6.27
2023-03-21T05:46:17.172Z,6.28
2023-03-21T05:51:23.274Z,6.27
2023-03-21T05:56:26.438Z,6.31
2023-03-21T06:01:28.432Z,6.26
2023-03-21T06:06:30.299Z,6.30
2023-03-21T06:11:36.437Z,6.31
2023-03-21T06:11:56.945Z,6.33
2023-03-21T06:12:08.963Z,6.31
2023-03-21T06:12:20.892Z,6.32
2023-03-21T06:12:35.204Z,6.33
2023-03-21T06:12:47.114Z,6.36
2023-03-21T06:12:59.072Z,6.36
2023-03-21T06:13:11.035Z,6.37
2023-03-21T06:13:22.977Z,6.37
2023-03-21T06:13:34.879Z,6.37
2023-03-21T06:13:46.751Z,6.38
2023-03-21T06:14:01.250Z,6.39
2023-03-21T06:14:13.155Z,6.39
2023-03-21T06:14:25.638Z,6.40
2023-03-21T06:14:37.649Z,6.40
2023-03-21T06:14:50.480Z,6.40
2023-03-21T06:15:04.611Z,6.39
2023-03-21T06:15:16.954Z,6.38
2023-03-21T06:15:29.115Z,6.39
2023-03-21T06:25:45.261Z,6.50
2023-03-21T06:45:09.990Z,6.56
2023-03-21T06:55:12.140Z,6.67
2023-03-21T07:05:17.370Z,6.81
2023-03-21T07:15:19.417Z,6.95
2023-03-21T07:25:22.458Z,7.30
2023-03-21T07:35:24.498Z,7.32
2023-03-21T07:45:27.700Z,7.45
2023-03-21T07:55:40.246Z,7.48
2023-03-21T08:05:42.753Z,7.92
2023-03-21T08:15:45.802Z,8.17
2023-03-21T08:25:58.057Z,7.83
2023-03-21T08:36:01.180Z,8.17
2023-03-21T08:46:09.274Z,8.27
2023-03-21T08:56:13.317Z,8.28
2023-03-21T09:06:17.685Z,8.38
2023-03-21T09:16:28.773Z,8.32
2023-03-21T09:26:31.472Z,8.42
2023-03-21T09:36:44.401Z,8.08
2023-03-21T09:47:09.491Z,8.20
2023-03-21T09:57:23.689Z,7.84
2023-03-21T10:07:31.239Z,7.92
2023-03-21T10:18:10.547Z,8.17
2023-03-21T10:28:27.286Z,7.77
2023-03-21T10:38:31.551Z,7.82
2023-03-21T10:48:39.979Z,7.97
2023-03-21T10:58:47.256Z,8.52
2023-03-21T11:08:56.976Z,9.17
2023-03-21T11:19:16.385Z,10.22
2023-03-21T11:29:24.487Z,9.48
2023-03-21T11:39:41.344Z,9.06
2023-03-21T11:49:58.409Z,8.77
2023-03-21T12:00:26.562Z,9.01
2023-03-21T12:10:47.930Z,9.47
2023-03-21T12:21:21.136Z,9.56
2023-03-21T12:32:08.685Z,9.61
2023-03-21T12:42:35.184Z,8.97
2023-03-21T12:52:48.835Z,8.04
2023-03-21T13:03:21.059Z,8.19
2023-03-21T13:13:33.601Z,8.49
2023-03-21T13:23:38.307Z,9.11
2023-03-21T13:33:45.315Z,9.09
2023-03-21T13:44:08.998Z,9.58
2023-03-21T13:54:14.186Z,9.85
2023-03-21T14:04:26.339Z,9.88
2023-03-21T14:14:44.494Z,9.74
2023-03-21T14:25:10.209Z,9.63
2023-03-21T14:35:12.983Z,9.59
2023-03-21T14:45:23.341Z,9.59
2023-03-21T14:55:26.096Z,9.62
2023-03-21T15:05:46.437Z,9.58
2023-03-21T15:16:00.326Z,9.45
2023-03-21T15:26:04.364Z,9.39
2023-03-21T15:36:10.363Z,9.39
2023-03-21T15:46:33.425Z,9.14
2023-03-21T15:56:36.566Z,8.90
2023-03-21T16:06:53.669Z,8.68
2023-03-21T16:16:58.390Z,8.45
2023-03-21T16:27:00.794Z,8.18
2023-03-21T16:37:03.620Z,7.96
2023-03-21T16:47:15.831Z,7.32
2023-03-21T16:57:30.466Z,6.89
2023-03-21T17:07:44.293Z,6.03
2023-03-21T17:17:50.483Z,5.86
2023-03-21T17:27:54.340Z,5.44
2023-03-21T17:37:59.162Z,5.40
2023-03-21T17:48:03.212Z,4.45
2023-03-21T17:58:13.284Z,4.52
2023-03-21T18:08:27.345Z,4.19
2023-03-21T18:18:32.175Z,3.87
2023-03-21T18:28:39.735Z,3.78
2023-03-21T18:38:46.798Z,3.35
2023-03-21T18:49:07.888Z,3.56
2023-03-21T18:59:23.080Z,2.60
2023-03-21T19:09:32.459Z,3.19
2023-03-21T19:19:36.834Z,3.12
2023-03-21T19:29:57.004Z,2.72
2023-03-21T19:40:10.819Z,2.77
2023-03-21T20:00:38.449Z,2.30
2023-03-21T20:10:44.408Z,2.31
2023-03-21T20:20:53.287Z,1.97
2023-03-21T20:31:05.887Z,2.59
2023-03-21T20:41:15.878Z,2.55
2023-03-21T21:01:59.874Z,1.77
2023-03-21T21:12:07.121Z,1.65
2023-03-21T21:22:12.622Z,1.68
2023-03-21T21:32:17.019Z,1.27
2023-03-21T21:42:20.180Z,1.45
2023-03-21T21:52:24.436Z,1.15
2023-03-21T22:02:50.281Z,0.90
2023-03-21T22:13:02.269Z,0.96
2023-03-21T22:23:05.239Z,0.97
2023-03-21T22:33:09.878Z,0.71
2023-03-21T22:43:12.373Z,0.60
2023-03-21T22:53:16.409Z,0.44
2023-03-21T23:03:18.673Z,0.58
2023-03-21T23:13:26.918Z,0.33
2023-03-21T23:23:36.968Z,0.21
2023-03-21T23:33:39.113Z,0.16
2023-03-21T23:43:42.774Z,0.21
2023-03-21T23:53:56.907Z,-0.13
